Time;durP1;ratioP1;P1;durP2;ratioP2;P2;SDS_P1;SDS_P2;PMS_P1;PMS_P2;Temp;Humidity;BMP_temperature;BMP_pressure;BME280_temperature;BME280_humidity;BME280_pressure;Samples;Min_cycle;Max_cycle;Signal;HPM_P1;HPM_P2
2022/09/13 00:01:50;;;;;;;7.15;4.47;;;;;;;;;;5051662;28;20040;-91
2022/09/13 00:04:16;;;;;;;9.10;5.30;;;;;;;;;;5053015;28;20495;-90
2022/09/13 00:06:42;;;;;;;8.73;4.78;;;;;;;;;;5039834;28;20467;-90
2022/09/13 00:09:08;;;;;;;8.10;4.90;;;;;;;;;;5044762;28;20033;-89
2022/09/13 00:11:34;;;;;;;9.07;5.03;;;;;;;;;;5055918;28;20029;-90
2022/09/13 00:14:00;;;;;;;8.48;4.20;;;;;;;;;;5041451;28;20048;-88
2022/09/13 00:16:28;;;;;;;20.25;5.32;;;;;;;;;;5043036;28;20044;-90
2022/09/13 00:18:54;;;;;;;7.22;4.57;;;;;;;;;;5050658;28;20534;-89
2022/09/13 00:21:21;;;;;;;8.15;4.78;;;;;;;;;;5055376;28;20388;-89
2022/09/13 00:23:51;;;;;;;6.65;4.35;;;;;;;;;;5052889;28;20388;-89
2022/09/13 00:26:19;;;;;;;10.98;5.03;;;;;;;;;;5033343;28;20014;-89
2022/09/13 00:28:45;;;;;;;5.97;4.10;;;;;;;;;;5062848;28;20013;-91
2022/09/13 00:31:11;;;;;;;9.48;5.10;;;;;;;;;;5057047;28;20033;-91
2022/09/13 00:33:37;;;;;;;5.63;4.45;;;;;;;;;;5053017;28;20044;-90
2022/09/13 00:36:07;;;;;;;8.45;4.70;;;;;;;;;;5057485;28;20523;-90
2022/09/13 00:38:37;;;;;;;6.18;4.22;;;;;;;;;;5042271;28;20018;-92
2022/09/13 00:41:04;;;;;;;11.63;4.95;;;;;;;;;;5052461;28;20040;-91
2022/09/13 00:43:44;;;;;;;9.32;4.57;;;;;;;;;;5047781;28;20476;-92
2022/09/13 00:46:13;;;;;;;8.48;4.35;;;;;;;;;;5054310;28;20135;-90
2022/09/13 00:48:39;;;;;;;6.68;4.53;;;;;;;;;;5052975;28;20554;-90
2022/09/13 00:51:08;;;;;;;7.38;4.47;;;;;;;;;;5053193;28;20028;-92
2022/09/13 00:53:37;;;;;;;11.77;6.55;;;;;;;;;;5062374;28;20016;-91
2022/09/13 00:56:16;;;;;;;6.55;5.25;;;;;;;;;;5068446;28;20056;-91
2022/09/13 00:58:51;;;;;;;6.72;5.07;;;;;;;;;;5054650;28;20124;-90
2022/09/13 01:01:18;;;;;;;7.45;5.38;;;;;;;;;;5051118;28;20040;-91
2022/09/13 01:03:45;;;;;;;16.17;6.22;;;;;;;;;;5051881;28;20025;-91
2022/09/13 01:06:14;;;;;;;7.57;5.90;;;;;;;;;;5052201;28;20421;-91
2022/09/13 01:08:42;;;;;;;5.70;4.32;;;;;;;;;;5050420;28;20029;-92
2022/09/13 01:11:11;;;;;;;9.32;5.35;;;;;;;;;;5032169;28;20064;-91
2022/09/13 01:13:38;;;;;;;12.50;5.53;;;;;;;;;;5049399;28;20020;-91
2022/09/13 01:16:04;;;;;;;10.45;5.40;;;;;;;;;;5055199;28;20051;-91
2022/09/13 01:18:30;;;;;;;10.05;5.50;;;;;;;;;;5052175;28;20025;-90
2022/09/13 01:21:15;;;;;;;13.65;5.82;;;;;;;;;;5037790;28;20111;-91
2022/09/13 01:23:51;;;;;;;14.32;7.53;;;;;;;;;;5051835;28;20021;-91
2022/09/13 01:26:33;;;;;;;8.30;6.07;;;;;;;;;;5046964;28;20028;-91
2022/09/13 01:28:59;;;;;;;8.02;5.50;;;;;;;;;;5051540;28;20021;-91
2022/09/13 01:31:41;;;;;;;7.78;4.88;;;;;;;;;;5051434;28;20456;-91
2022/09/13 01:34:07;;;;;;;11.98;5.35;;;;;;;;;;5052354;28;20029;-91
2022/09/13 01:36:52;;;;;;;7.22;5.22;;;;;;;;;;5053593;28;20017;-90
2022/09/13 01:39:26;;;;;;;6.95;5.45;;;;;;;;;;5058253;28;20048;-90
2022/09/13 01:42:01;;;;;;;11.85;4.63;;;;;;;;;;5061820;28;20090;-90
2022/09/13 01:44:27;;;;;;;12.50;5.40;;;;;;;;;;5051743;28;20033;-91
2022/09/13 01:47:03;;;;;;;8.18;4.68;;;;;;;;;;5052637;28;20548;-90
2022/09/13 01:49:33;;;;;;;8.13;5.50;;;;;;;;;;5056321;28;20031;-90
2022/09/13 01:52:01;;;;;;;14.07;5.25;;;;;;;;;;5036396;28;20021;-90
2022/09/13 01:54:27;;;;;;;6.90;4.80;;;;;;;;;;5047208;28;20029;-90
2022/09/13 01:57:03;;;;;;;9.45;5.20;;;;;;;;;;5041564;28;20525;-90
2022/09/13 01:59:36;;;;;;;9.35;5.70;;;;;;;;;;5055626;28;20029;-90
2022/09/13 02:02:16;;;;;;;7.72;5.00;;;;;;;;;;5068247;28;20048;-90
2022/09/13 02:04:44;;;;;;;7.75;4.65;;;;;;;;;;5059174;28;20120;-90
2022/09/13 02:07:13;;;;;;;6.40;4.40;;;;;;;;;;5051607;28;20017;-90
2022/09/13 02:09:41;;;;;;;9.45;4.78;;;;;;;;;;5045084;28;20431;-91
2022/09/13 02:12:13;;;;;;;6.85;5.40;;;;;;;;;;5055058;28;20380;-90
2022/09/13 02:14:40;;;;;;;6.85;5.20;;;;;;;;;;5063789;28;20043;-90
2022/09/13 02:17:18;;;;;;;10.82;5.43;;;;;;;;;;5064011;28;20028;-90
2022/09/13 02:19:54;;;;;;;12.25;5.72;;;;;;;;;;5055402;28;20029;-91
2022/09/13 02:22:23;;;;;;;8.60;5.53;;;;;;;;;;5042079;28;20038;-90
2022/09/13 02:24:52;;;;;;;9.30;5.20;;;;;;;;;;5060561;28;20051;-91
2022/09/13 02:27:20;;;;;;;10.55;5.60;;;;;;;;;;5054881;28;20028;-91
2022/09/13 02:29:47;;;;;;;10.70;5.40;;;;;;;;;;5056716;28;20021;-90
2022/09/13 02:32:35;;;;;;;7.65;5.18;;;;;;;;;;5055503;28;20025;-90
2022/09/13 02:35:06;;;;;;;10.23;5.60;;;;;;;;;;5054816;28;20021;-90
2022/09/13 02:37:35;;;;;;;9.90;5.65;;;;;;;;;;5042916;28;20021;-90
2022/09/13 02:40:03;;;;;;;14.05;6.25;;;;;;;;;;5052727;28;20025;-90
2022/09/13 02:42:35;;;;;;;13.55;5.93;;;;;;;;;;5055004;28;20104;-88
2022/09/13 02:45:01;;;;;;;9.45;6.78;;;;;;;;;;5068835;28;20024;-89
2022/09/13 02:47:27;;;;;;;14.07;6.07;;;;;;;;;;5054590;28;20025;-90
2022/09/13 02:49:54;;;;;;;14.15;5.80;;;;;;;;;;5042356;28;20056;-89
2022/09/13 02:52:33;;;;;;;10.13;5.55;;;;;;;;;;5051968;28;20108;-89
2022/09/13 02:55:06;;;;;;;12.05;5.68;;;;;;;;;;5050154;28;20454;-90
2022/09/13 02:57:37;;;;;;;8.82;5.90;;;;;;;;;;5049832;28;20085;-89
2022/09/13 03:00:04;;;;;;;9.65;5.70;;;;;;;;;;5053473;28;20040;-90
2022/09/13 03:02:34;;;;;;;11.65;6.70;;;;;;;;;;5054765;28;20033;-89
2022/09/13 03:05:01;;;;;;;7.95;5.85;;;;;;;;;;5058150;28;20021;-90
2022/09/13 03:07:27;;;;;;;13.30;6.63;;;;;;;;;;5041697;28;20088;-88
2022/09/13 03:09:55;;;;;;;10.05;5.50;;;;;;;;;;5082149;28;20033;-90
2022/09/13 03:12:40;;;;;;;11.90;7.30;;;;;;;;;;5054220;28;20025;-91
2022/09/13 03:15:25;;;;;;;13.38;7.32;;;;;;;;;;5047524;28;20029;-91
2022/09/13 03:17:51;;;;;;;11.50;6.75;;;;;;;;;;5043694;28;20036;-90
2022/09/13 03:20:18;;;;;;;25.27;6.65;;;;;;;;;;5058306;28;20021;-90
2022/09/13 03:22:47;;;;;;;14.02;6.68;;;;;;;;;;5054935;28;20025;-91
2022/09/13 03:25:26;;;;;;;11.63;8.07;;;;;;;;;;5041647;28;20025;-90
2022/09/13 03:27:56;;;;;;;10.10;6.60;;;;;;;;;;5052450;28;20108;-90
2022/09/13 03:30:22;;;;;;;9.38;6.65;;;;;;;;;;5062580;28;20025;-90
2022/09/13 03:32:48;;;;;;;13.35;6.55;;;;;;;;;;5053956;28;20024;-90
2022/09/13 03:35:22;;;;;;;14.82;7.22;;;;;;;;;;5053353;28;20021;-90
2022/09/13 03:38:04;;;;;;;8.93;6.70;;;;;;;;;;5039675;28;20033;-88
2022/09/13 03:40:33;;;;;;;18.45;7.43;;;;;;;;;;5057781;28;20036;-91
2022/09/13 03:43:10;;;;;;;17.17;6.75;;;;;;;;;;5054070;28;20040;-91
2022/09/13 03:45:38;;;;;;;9.95;7.35;;;;;;;;;;5054446;28;20040;-89
2022/09/13 03:48:05;;;;;;;12.73;7.20;;;;;;;;;;5053273;28;20112;-89
2022/09/13 03:50:31;;;;;;;10.43;6.82;;;;;;;;;;5041833;28;20021;-92
2022/09/13 03:53:04;;;;;;;14.48;6.78;;;;;;;;;;5058353;28;20178;-90
2022/09/13 03:55:32;;;;;;;15.75;6.32;;;;;;;;;;5057896;28;20021;-90
2022/09/13 03:57:58;;;;;;;10.25;6.75;;;;;;;;;;5054391;28;20024;-89
2022/09/13 04:00:24;;;;;;;17.48;6.80;;;;;;;;;;5063284;28;20024;-90
2022/09/13 04:02:50;;;;;;;12.60;7.30;;;;;;;;;;5063759;28;20461;-90
2022/09/13 04:05:16;;;;;;;9.02;7.15;;;;;;;;;;5054031;28;20495;-90
2022/09/13 04:07:42;;;;;;;8.68;6.70;;;;;;;;;;5057946;28;20361;-89
2022/09/13 04:10:09;;;;;;;14.52;5.78;;;;;;;;;;5054287;28;20083;-89
2022/09/13 04:12:35;;;;;;;11.45;6.38;;;;;;;;;;5056279;28;20361;-89
2022/09/13 04:15:01;;;;;;;10.57;7.20;;;;;;;;;;5054641;28;20028;-88
2022/09/13 04:17:27;;;;;;;17.05;6.93;;;;;;;;;;5063815;28;20085;-89
2022/09/13 04:19:53;;;;;;;13.73;7.72;;;;;;;;;;5047425;28;20426;-89
2022/09/13 04:22:19;;;;;;;10.18;6.97;;;;;;;;;;5051039;28;20395;-89
2022/09/13 04:24:45;;;;;;;33.38;19.35;;;;;;;;;;5041210;28;20388;-88
2022/09/13 04:27:12;;;;;;;13.27;8.32;;;;;;;;;;5052587;28;20521;-90
2022/09/13 04:29:38;;;;;;;15.73;7.95;;;;;;;;;;5052004;28;20024;-87
2022/09/13 04:32:04;;;;;;;23.00;7.55;;;;;;;;;;5050608;28;20484;-87
2022/09/13 04:34:30;;;;;;;9.77;7.40;;;;;;;;;;5051628;28;20025;-87
2022/09/13 04:36:56;;;;;;;12.38;7.50;;;;;;;;;;5048759;28;20026;-87
2022/09/13 04:39:22;;;;;;;13.38;8.13;;;;;;;;;;5045960;28;20026;-87
2022/09/13 04:41:50;;;;;;;11.65;8.55;;;;;;;;;;5045857;28;20122;-89
2022/09/13 04:44:17;;;;;;;17.80;11.05;;;;;;;;;;5044437;28;20024;-89
2022/09/13 04:46:46;;;;;;;14.02;11.05;;;;;;;;;;5052289;28;20091;-89
2022/09/13 04:49:13;;;;;;;20.50;11.40;;;;;;;;;;5052296;28;20025;-89
2022/09/13 04:51:39;;;;;;;14.27;6.97;;;;;;;;;;5066883;28;21235;-88
2022/09/13 04:54:05;;;;;;;10.88;6.32;;;;;;;;;;5040986;28;20118;-91
2022/09/13 04:56:32;;;;;;;11.43;7.47;;;;;;;;;;5052113;28;20361;-89
2022/09/13 04:58:58;;;;;;;13.77;7.80;;;;;;;;;;5051810;28;20035;-88
2022/09/13 05:01:24;;;;;;;10.40;7.40;;;;;;;;;;5051893;28;20032;-89
2022/09/13 05:03:54;;;;;;;14.23;7.45;;;;;;;;;;5051730;28;20108;-89
2022/09/13 05:06:21;;;;;;;12.45;7.15;;;;;;;;;;5041071;28;20017;-88
2022/09/13 05:08:54;;;;;;;11.88;7.18;;;;;;;;;;5055921;28;20070;-89
2022/09/13 05:11:27;;;;;;;10.25;6.97;;;;;;;;;;5047990;28;20060;-88
2022/09/13 05:13:55;;;;;;;12.63;7.32;;;;;;;;;;5050989;28;20048;-89
2022/09/13 05:16:22;;;;;;;15.63;8.18;;;;;;;;;;5053383;28;20036;-94
2022/09/13 05:18:48;;;;;;;25.83;15.07;;;;;;;;;;5040622;28;20022;-88
2022/09/13 05:21:14;;;;;;;19.52;8.65;;;;;;;;;;5051091;28;20041;-88
2022/09/13 05:23:40;;;;;;;13.50;8.48;;;;;;;;;;5058832;28;20017;-87
2022/09/13 05:26:08;;;;;;;15.60;11.02;;;;;;;;;;5057909;28;20020;-88
2022/09/13 05:28:34;;;;;;;13.38;8.82;;;;;;;;;;5053270;28;20025;-88
2022/09/13 05:31:02;;;;;;;22.40;8.80;;;;;;;;;;5051895;28;20017;-89
2022/09/13 05:33:33;;;;;;;9.57;6.93;;;;;;;;;;5051004;28;20049;-89
2022/09/13 05:35:59;;;;;;;15.20;10.15;;;;;;;;;;5051035;28;20047;-89
2022/09/13 05:38:25;;;;;;;15.80;11.05;;;;;;;;;;5050973;28;20395;-87
2022/09/13 05:40:55;;;;;;;11.55;8.30;;;;;;;;;;5050969;28;20033;-89
2022/09/13 05:43:22;;;;;;;9.00;6.72;;;;;;;;;;5048601;28;20053;-88
2022/09/13 05:45:48;;;;;;;11.98;7.57;;;;;;;;;;5051179;28;20021;-86
2022/09/13 05:48:14;;;;;;;12.95;7.72;;;;;;;;;;5050922;28;20372;-87
2022/09/13 05:50:40;;;;;;;10.30;7.68;;;;;;;;;;5051023;28;20384;-88
2022/09/13 05:53:06;;;;;;;14.10;6.72;;;;;;;;;;5047668;28;20449;-87
2022/09/13 05:55:33;;;;;;;10.02;6.53;;;;;;;;;;5049040;28;20027;-90
2022/09/13 05:58:00;;;;;;;19.38;8.10;;;;;;;;;;5051388;28;20066;-90
2022/09/13 06:00:26;;;;;;;11.15;6.80;;;;;;;;;;5050614;28;20116;-90
2022/09/13 06:02:52;;;;;;;13.15;6.32;;;;;;;;;;5053482;28;20017;-89
2022/09/13 06:05:18;;;;;;;8.20;5.85;;;;;;;;;;5042231;28;20025;-88
2022/09/13 06:07:45;;;;;;;10.65;6.65;;;;;;;;;;5065268;28;20017;-88
2022/09/13 06:10:11;;;;;;;19.98;6.55;;;;;;;;;;5051145;28;20056;-89
2022/09/13 06:12:37;;;;;;;12.57;7.38;;;;;;;;;;5051790;28;20021;-90
2022/09/13 06:15:04;;;;;;;12.13;6.38;;;;;;;;;;5033034;28;20043;-88
2022/09/13 06:17:30;;;;;;;10.30;6.30;;;;;;;;;;5048528;28;20025;-88
2022/09/13 06:19:56;;;;;;;12.70;7.88;;;;;;;;;;5049218;28;20017;-88
2022/09/13 06:22:22;;;;;;;10.90;6.95;;;;;;;;;;5040280;28;20460;-88
2022/09/13 06:24:48;;;;;;;9.52;6.68;;;;;;;;;;5050827;28;20452;-88
2022/09/13 06:27:14;;;;;;;10.13;6.97;;;;;;;;;;5050993;28;20074;-88
2022/09/13 06:29:40;;;;;;;15.13;7.80;;;;;;;;;;5050265;28;20107;-88
2022/09/13 06:32:06;;;;;;;12.30;8.05;;;;;;;;;;5049986;28;20060;-88
2022/09/13 06:34:32;;;;;;;11.70;7.32;;;;;;;;;;5037450;28;20030;-88
2022/09/13 06:36:58;;;;;;;12.63;6.65;;;;;;;;;;5055042;28;20021;-89
2022/09/13 06:39:24;;;;;;;13.63;5.78;;;;;;;;;;5054904;28;20074;-88
2022/09/13 06:41:50;;;;;;;12.18;5.43;;;;;;;;;;5056124;28;20416;-89
2022/09/13 06:44:16;;;;;;;13.30;6.05;;;;;;;;;;5054986;28;20025;-88
2022/09/13 06:46:42;;;;;;;7.63;5.38;;;;;;;;;;5053795;28;20541;-89
2022/09/13 06:49:09;;;;;;;8.10;5.05;;;;;;;;;;5054173;28;20048;-88
2022/09/13 06:51:35;;;;;;;7.93;5.43;;;;;;;;;;5053924;28;20029;-88
2022/09/13 06:54:02;;;;;;;9.85;6.05;;;;;;;;;;5055599;28;20116;-88
2022/09/13 06:56:33;;;;;;;11.20;7.03;;;;;;;;;;5054148;28;20021;-88
2022/09/13 06:59:02;;;;;;;8.55;5.82;;;;;;;;;;5047399;28;20017;-88
2022/09/13 07:01:29;;;;;;;8.57;5.65;;;;;;;;;;5046823;28;20040;-88
2022/09/13 07:04:01;;;;;;;8.60;5.38;;;;;;;;;;5053733;28;20062;-89
2022/09/13 07:06:29;;;;;;;9.32;5.72;;;;;;;;;;5054077;28;20017;-88
2022/09/13 07:08:56;;;;;;;8.30;5.30;;;;;;;;;;5054109;28;20079;-88
2022/09/13 07:11:23;;;;;;;9.98;6.68;;;;;;;;;;5053738;28;20403;-88
2022/09/13 07:13:50;;;;;;;12.30;5.55;;;;;;;;;;5053729;28;20021;-88
2022/09/13 07:16:16;;;;;;;11.73;6.63;;;;;;;;;;5053761;28;20029;-89
2022/09/13 07:18:42;;;;;;;11.57;5.60;;;;;;;;;;5054241;28;20057;-89
2022/09/13 07:21:09;;;;;;;7.18;5.13;;;;;;;;;;5054919;28;20044;-88
2022/09/13 07:23:36;;;;;;;7.43;5.05;;;;;;;;;;5056154;28;20021;-89
2022/09/13 07:26:06;;;;;;;6.97;5.40;;;;;;;;;;5056700;28;20021;-87
2022/09/13 07:28:33;;;;;;;11.65;7.28;;;;;;;;;;5042752;28;20032;-89
2022/09/13 07:31:10;;;;;;;6.85;5.20;;;;;;;;;;5053782;28;21084;-87
2022/09/13 07:33:37;;;;;;;8.88;6.22;;;;;;;;;;5053310;28;20029;-89
2022/09/13 07:36:05;;;;;;;11.05;6.75;;;;;;;;;;5049204;28;20018;-90
2022/09/13 07:38:32;;;;;;;9.25;5.85;;;;;;;;;;5036481;28;20112;-89
2022/09/13 07:40:58;;;;;;;8.63;6.65;;;;;;;;;;5051544;28;20079;-93
2022/09/13 07:43:25;;;;;;;8.30;6.07;;;;;;;;;;5054458;28;20074;-91
2022/09/13 07:46:01;;;;;;;9.15;5.40;;;;;;;;;;5045105;28;20013;-90
2022/09/13 07:48:29;;;;;;;10.48;5.78;;;;;;;;;;5045290;28;20021;-89
2022/09/13 07:51:08;;;;;;;8.95;5.10;;;;;;;;;;5042066;28;20040;-91
2022/09/13 07:53:35;;;;;;;11.43;5.93;;;;;;;;;;5054587;28;20057;-90
2022/09/13 07:56:01;;;;;;;7.35;4.20;;;;;;;;;;5048128;28;20473;-90
2022/09/13 07:58:28;;;;;;;7.80;5.35;;;;;;;;;;5050702;28;20021;-89
2022/09/13 08:00:54;;;;;;;9.80;5.30;;;;;;;;;;5052333;28;20044;-89
2022/09/13 08:03:20;;;;;;;7.38;5.07;;;;;;;;;;5049050;28;20052;-89
2022/09/13 08:05:46;;;;;;;7.72;5.60;;;;;;;;;;5054113;28;20768;-88
2022/09/13 08:08:12;;;;;;;8.35;5.85;;;;;;;;;;5052543;28;20036;-88
2022/09/13 08:10:38;;;;;;;9.15;5.93;;;;;;;;;;5052124;28;20079;-89
2022/09/13 08:13:04;;;;;;;9.30;5.40;;;;;;;;;;5052485;28;20037;-89
2022/09/13 08:15:30;;;;;;;8.05;4.75;;;;;;;;;;5033949;28;20025;-89
2022/09/13 08:17:56;;;;;;;7.75;5.22;;;;;;;;;;5042969;28;20094;-89
2022/09/13 08:20:22;;;;;;;9.00;4.35;;;;;;;;;;5052484;28;20017;-89
2022/09/13 08:22:48;;;;;;;8.40;4.82;;;;;;;;;;5050778;28;20049;-89
2022/09/13 08:25:14;;;;;;;6.32;4.75;;;;;;;;;;5053497;28;20021;-88
2022/09/13 08:27:40;;;;;;;8.38;4.75;;;;;;;;;;5053897;28;20028;-88
2022/09/13 08:30:07;;;;;;;7.50;4.78;;;;;;;;;;5050934;28;20098;-89
2022/09/13 08:32:33;;;;;;;9.85;5.07;;;;;;;;;;5053657;28;20025;-88
2022/09/13 08:34:59;;;;;;;6.22;4.80;;;;;;;;;;5051208;28;20067;-89
2022/09/13 08:37:25;;;;;;;6.10;4.18;;;;;;;;;;5048775;28;20025;-89
2022/09/13 08:39:51;;;;;;;6.75;3.78;;;;;;;;;;5048769;28;20083;-88
2022/09/13 08:42:17;;;;;;;6.90;4.68;;;;;;;;;;5052011;28;20044;-89
2022/09/13 08:44:48;;;;;;;6.28;4.38;;;;;;;;;;5054157;28;20055;-88
2022/09/13 08:47:28;;;;;;;8.55;4.25;;;;;;;;;;5051592;28;20117;-88
2022/09/13 08:50:01;;;;;;;9.15;4.72;;;;;;;;;;5051623;28;20454;-87
2022/09/13 08:52:32;;;;;;;7.18;5.22;;;;;;;;;;5051630;28;20074;-86
2022/09/13 08:55:19;;;;;;;8.88;7.25;;;;;;;;;;5047797;28;20018;-86
2022/09/13 08:57:49;;;;;;;23.42;17.88;;;;;;;;;;5044207;28;20025;-87
2022/09/13 09:00:21;;;;;;;9.13;6.75;;;;;;;;;;5047512;28;20055;-88
2022/09/13 09:02:48;;;;;;;7.40;4.25;;;;;;;;;;5050202;28;20033;-87
2022/09/13 09:05:22;;;;;;;21.70;15.60;;;;;;;;;;5052076;28;20028;-87
2022/09/13 09:07:58;;;;;;;12.15;7.85;;;;;;;;;;5049110;28;20021;-87
2022/09/13 09:10:25;;;;;;;4.53;3.58;;;;;;;;;;5045011;28;20052;-90
2022/09/13 09:12:51;;;;;;;4.75;3.67;;;;;;;;;;5051278;28;20025;-88
2022/09/13 09:15:17;;;;;;;7.25;4.13;;;;;;;;;;5041107;28;20033;-89
2022/09/13 09:17:53;;;;;;;9.20;7.18;;;;;;;;;;5048336;28;20043;-88
2022/09/13 09:20:33;;;;;;;4.57;3.15;;;;;;;;;;5051551;28;20029;-89
2022/09/13 09:23:03;;;;;;;8.07;4.03;;;;;;;;;;5038487;28;20024;-88
2022/09/13 09:25:30;;;;;;;7.03;4.00;;;;;;;;;;5042326;28;20019;-88
2022/09/13 09:27:57;;;;;;;6.50;5.30;;;;;;;;;;5048385;28;20488;-88
2022/09/13 09:30:25;;;;;;;8.75;4.53;;;;;;;;;;5051169;28;20024;-87
2022/09/13 09:32:58;;;;;;;13.98;4.47;;;;;;;;;;5051927;28;20029;-87
2022/09/13 09:35:42;;;;;;;5.47;4.55;;;;;;;;;;5050926;28;20464;-88
2022/09/13 09:38:24;;;;;;;4.50;3.95;;;;;;;;;;5051121;28;20064;-87
2022/09/13 09:40:50;;;;;;;6.47;4.13;;;;;;;;;;5048827;28;20033;-86
2022/09/13 09:43:19;;;;;;;6.70;3.95;;;;;;;;;;5050984;28;20108;-88
2022/09/13 09:45:46;;;;;;;14.35;11.10;;;;;;;;;;5050656;28;20044;-88
2022/09/13 09:48:17;;;;;;;16.27;13.68;;;;;;;;;;5049793;28;20084;-88
2022/09/13 09:50:54;;;;;;;18.77;14.38;;;;;;;;;;5056921;28;20029;-88
2022/09/13 09:53:35;;;;;;;8.40;5.22;;;;;;;;;;5061237;28;20043;-88
2022/09/13 09:56:20;;;;;;;6.57;4.63;;;;;;;;;;5052497;28;20353;-87
2022/09/13 09:58:46;;;;;;;6.97;4.57;;;;;;;;;;5036796;28;20021;-87
2022/09/13 10:01:26;;;;;;;4.45;3.20;;;;;;;;;;5051877;28;20037;-86
2022/09/13 10:03:52;;;;;;;6.78;3.70;;;;;;;;;;5050678;28;20055;-87
2022/09/13 10:06:20;;;;;;;5.97;4.10;;;;;;;;;;5036241;28;20033;-89
2022/09/13 10:08:55;;;;;;;16.25;11.13;;;;;;;;;;5052025;28;20021;-88
2022/09/13 10:11:22;;;;;;;25.63;17.33;;;;;;;;;;5054525;28;20079;-89
2022/09/13 10:14:01;;;;;;;5.78;4.00;;;;;;;;;;5054899;28;20017;-88
2022/09/13 10:16:28;;;;;;;6.13;3.90;;;;;;;;;;5052399;28;20029;-88
2022/09/13 10:19:08;;;;;;;4.85;2.90;;;;;;;;;;5055931;28;20367;-89
2022/09/13 10:21:34;;;;;;;7.40;4.00;;;;;;;;;;5042406;28;20038;-88
2022/09/13 10:24:16;;;;;;;5.80;3.72;;;;;;;;;;5054660;28;20039;-88
2022/09/13 10:26:42;;;;;;;6.18;3.13;;;;;;;;;;5054340;28;20029;-88
2022/09/13 10:29:12;;;;;;;6.38;3.78;;;;;;;;;;5054708;28;20021;-89
2022/09/13 10:31:41;;;;;;;8.82;4.40;;;;;;;;;;5041093;28;20016;-89
2022/09/13 10:34:07;;;;;;;8.65;3.80;;;;;;;;;;5054612;28;20048;-89
2022/09/13 10:36:36;;;;;;;5.50;3.38;;;;;;;;;;5055226;28;20021;-88
2022/09/13 10:39:21;;;;;;;6.00;4.03;;;;;;;;;;5046269;28;20022;-88
2022/09/13 10:41:53;;;;;;;4.88;3.47;;;;;;;;;;5052865;28;20427;-88
2022/09/13 10:44:32;;;;;;;4.43;3.42;;;;;;;;;;5053859;28;20059;-88
2022/09/13 10:47:00;;;;;;;11.85;3.88;;;;;;;;;;5048157;28;20025;-89
2022/09/13 10:49:37;;;;;;;4.85;3.03;;;;;;;;;;5058660;28;20105;-89
2022/09/13 10:52:23;;;;;;;4.97;3.10;;;;;;;;;;5053061;28;20024;-89
2022/09/13 10:54:49;;;;;;;5.22;3.70;;;;;;;;;;5053994;28;20017;-89
2022/09/13 10:57:32;;;;;;;5.18;3.90;;;;;;;;;;5056114;28;20021;-88
2022/09/13 10:59:58;;;;;;;6.50;3.60;;;;;;;;;;5062223;28;20039;-90
2022/09/13 11:02:27;;;;;;;5.78;3.45;;;;;;;;;;5053502;28;20120;-89
2022/09/13 11:05:05;;;;;;;13.00;8.68;;;;;;;;;;5035521;28;20026;-89
2022/09/13 11:07:41;;;;;;;8.57;5.32;;;;;;;;;;5059592;28;20044;-88
2022/09/13 11:10:25;;;;;;;7.75;4.20;;;;;;;;;;5054317;28;20145;-88
2022/09/13 11:12:57;;;;;;;5.90;2.92;;;;;;;;;;5048678;28;20374;-90
2022/09/13 11:15:36;;;;;;;9.15;5.25;;;;;;;;;;5036086;28;20044;-89
2022/09/13 11:18:14;;;;;;;4.45;2.83;;;;;;;;;;5054934;28;20436;-89
2022/09/13 11:20:43;;;;;;;4.55;3.10;;;;;;;;;;5038749;28;20525;-89
2022/09/13 11:23:09;;;;;;;9.48;2.70;;;;;;;;;;5049661;28;20021;-89
2022/09/13 11:25:57;;;;;;;17.75;3.08;;;;;;;;;;5053689;28;20021;-88
2022/09/13 11:28:33;;;;;;;7.10;3.75;;;;;;;;;;5053092;28;20094;-90
2022/09/13 11:31:14;;;;;;;8.45;4.32;;;;;;;;;;5050427;28;20033;-89
2022/09/13 11:33:46;;;;;;;4.32;3.35;;;;;;;;;;5042248;28;20021;-89
2022/09/13 11:36:23;;;;;;;6.17;3.90;;;;;;;;;;5041265;28;20079;-91
2022/09/13 11:38:49;;;;;;;8.00;2.92;;;;;;;;;;5034279;28;20465;-88
2022/09/13 11:41:33;;;;;;;5.68;3.53;;;;;;;;;;5048647;28;20062;-89
2022/09/13 11:44:14;;;;;;;6.45;2.78;;;;;;;;;;5040239;28;20113;-90
2022/09/13 11:46:40;;;;;;;4.53;3.08;;;;;;;;;;5033559;28;20076;-89
2022/09/13 11:49:21;;;;;;;13.98;4.18;;;;;;;;;;5052140;28;20037;-89
2022/09/13 11:52:02;;;;;;;5.10;2.67;;;;;;;;;;5040666;28;20366;-89
2022/09/13 11:54:34;;;;;;;6.18;3.75;;;;;;;;;;5040098;28;20424;-89
2022/09/13 11:57:03;;;;;;;3.60;2.60;;;;;;;;;;5055423;28;20040;-88
2022/09/13 11:59:37;;;;;;;3.33;2.70;;;;;;;;;;5041469;28;20052;-89
2022/09/13 12:02:12;;;;;;;4.47;2.28;;;;;;;;;;5041022;28;20072;-90
2022/09/13 12:04:44;;;;;;;6.03;3.80;;;;;;;;;;5036174;28;20389;-87
2022/09/13 12:07:13;;;;;;;3.03;2.10;;;;;;;;;;5051157;28;20032;-91
2022/09/13 12:09:47;;;;;;;3.70;2.42;;;;;;;;;;5050239;28;20041;-88
2022/09/13 12:12:13;;;;;;;2.55;1.98;;;;;;;;;;5053900;28;20025;-88
2022/09/13 12:14:50;;;;;;;5.72;4.78;;;;;;;;;;5053848;28;20025;-89
2022/09/13 12:17:25;;;;;;;9.07;7.75;;;;;;;;;;5052541;28;20029;-89
2022/09/13 12:19:53;;;;;;;3.33;2.25;;;;;;;;;;5052716;28;20031;-89
2022/09/13 12:22:20;;;;;;;6.60;2.97;;;;;;;;;;5051744;28;20123;-88
2022/09/13 12:24:48;;;;;;;6.95;5.35;;;;;;;;;;5038998;28;20022;-91
2022/09/13 12:27:31;;;;;;;3.05;2.15;;;;;;;;;;5051543;28;20063;-89
2022/09/13 12:30:00;;;;;;;4.30;2.15;;;;;;;;;;5045803;28;20028;-89
2022/09/13 12:32:27;;;;;;;3.10;2.03;;;;;;;;;;5036939;28;20047;-88
2022/09/13 12:35:00;;;;;;;3.75;2.20;;;;;;;;;;5042648;28;20064;-88
2022/09/13 12:37:41;;;;;;;7.45;3.42;;;;;;;;;;5052664;28;20037;-88
2022/09/13 12:40:11;;;;;;;3.75;2.33;;;;;;;;;;5052816;28;20116;-88
2022/09/13 12:42:43;;;;;;;6.90;2.40;;;;;;;;;;5051142;28;20064;-88
2022/09/13 12:45:20;;;;;;;3.10;2.20;;;;;;;;;;5038928;28;20221;-88
2022/09/13 12:47:58;;;;;;;3.42;2.50;;;;;;;;;;5038180;28;20116;-88
2022/09/13 12:50:32;;;;;;;4.53;2.17;;;;;;;;;;5062638;28;20101;-86
2022/09/13 12:53:17;;;;;;;6.55;2.25;;;;;;;;;;5043609;28;20021;-87
2022/09/13 12:55:47;;;;;;;4.40;2.03;;;;;;;;;;5039439;28;20105;-88
2022/09/13 12:58:18;;;;;;;3.33;2.35;;;;;;;;;;5049920;28;20056;-89
2022/09/13 13:01:01;;;;;;;4.78;2.40;;;;;;;;;;5045639;28;20021;-88
2022/09/13 13:03:33;;;;;;;3.75;2.63;;;;;;;;;;5046113;28;20457;-88
2022/09/13 13:06:15;;;;;;;6.53;2.13;;;;;;;;;;5047864;28;20036;-87
2022/09/13 13:08:48;;;;;;;4.30;2.20;;;;;;;;;;5046412;28;20100;-88
2022/09/13 13:11:14;;;;;;;3.10;2.53;;;;;;;;;;5064755;28;20120;-88
2022/09/13 13:13:43;;;;;;;6.32;2.55;;;;;;;;;;5055711;28;20036;-88
2022/09/13 13:16:22;;;;;;;3.33;2.42;;;;;;;;;;5037652;28;20025;-88
2022/09/13 13:18:50;;;;;;;5.47;2.35;;;;;;;;;;5051176;28;20028;-89
2022/09/13 13:21:26;;;;;;;4.47;2.13;;;;;;;;;;5045141;28;20064;-87
2022/09/13 13:24:10;;;;;;;6.75;1.92;;;;;;;;;;5045971;28;20029;-88
2022/09/13 13:26:43;;;;;;;5.70;2.33;;;;;;;;;;5048555;28;20022;-89
2022/09/13 13:29:09;;;;;;;;;;;;;;;;;;5032133;28;20028;-89
2022/09/13 13:31:37;;;;;;;5.82;2.40;;;;;;;;;;5047941;28;19905;-89
2022/09/13 13:34:03;;;;;;;3.53;2.13;;;;;;;;;;5051671;28;20410;-92
2022/09/13 13:36:49;;;;;;;3.53;2.30;;;;;;;;;;5052622;28;20028;-89
2022/09/13 13:39:24;;;;;;;3.38;1.80;;;;;;;;;;5039965;28;20148;-89
2022/09/13 13:41:56;;;;;;;3.78;2.13;;;;;;;;;;5052772;28;20391;-89
2022/09/13 13:44:22;;;;;;;4.07;2.47;;;;;;;;;;5056424;28;20032;-89
2022/09/13 13:46:50;;;;;;;3.10;2.00;;;;;;;;;;5058718;28;20099;-89
2022/09/13 13:49:34;;;;;;;3.50;1.90;;;;;;;;;;5057876;28;20045;-89
2022/09/13 13:52:14;;;;;;;3.42;2.10;;;;;;;;;;5058569;28;20116;-91
2022/09/13 13:54:44;;;;;;;4.15;2.55;;;;;;;;;;5058212;28;20025;-91
2022/09/13 13:57:28;;;;;;;3.10;2.13;;;;;;;;;;5055628;28;20025;-90
2022/09/13 13:59:55;;;;;;;3.78;1.70;;;;;;;;;;5054857;28;20337;-90
2022/09/13 14:02:25;;;;;;;5.05;2.00;;;;;;;;;;5053421;28;20492;-93
2022/09/13 14:05:00;;;;;;;4.30;2.45;;;;;;;;;;5058583;28;20468;-91
2022/09/13 14:07:50;;;;;;;3.70;2.30;;;;;;;;;;5058295;28;20472;-92
2022/09/13 14:10:22;;;;;;;6.75;2.10;;;;;;;;;;5011520;28;20519;-92
2022/09/13 14:12:57;;;;;;;3.33;1.73;;;;;;;;;;5049012;28;20029;-91
2022/09/13 14:15:32;;;;;;;2.50;1.70;;;;;;;;;;5064445;28;20041;-91
2022/09/13 14:18:04;;;;;;;2.83;1.77;;;;;;;;;;5070251;28;20033;-91
2022/09/13 14:20:30;;;;;;;2.83;2.53;;;;;;;;;;5062881;28;20107;-92
2022/09/13 14:23:10;;;;;;;4.95;2.30;;;;;;;;;;5051885;28;20032;-91
2022/09/13 14:25:36;;;;;;;7.90;2.58;;;;;;;;;;5046938;28;20028;-91
2022/09/13 14:28:06;;;;;;;4.03;2.13;;;;;;;;;;5058883;28;20045;-91
2022/09/13 14:30:35;;;;;;;3.20;2.25;;;;;;;;;;5061148;28;20021;-91
2022/09/13 14:33:04;;;;;;;2.65;1.80;;;;;;;;;;5060402;28;20083;-91
2022/09/13 14:35:37;;;;;;;2.65;2.15;;;;;;;;;;5059365;28;20078;-91
2022/09/13 14:38:10;;;;;;;6.70;5.30;;;;;;;;;;5057552;28;20383;-91
2022/09/13 14:40:37;;;;;;;3.60;2.58;;;;;;;;;;5058481;28;20025;-91
2022/09/13 14:43:15;;;;;;;2.40;1.80;;;;;;;;;;5058721;28;20036;-93
2022/09/13 14:45:42;;;;;;;3.72;2.92;;;;;;;;;;5062148;28;20047;-94
2022/09/13 14:48:28;;;;;;;5.40;3.97;;;;;;;;;;5059652;28;20025;-95
2022/09/13 14:50:57;;;;;;;2.92;1.88;;;;;;;;;;5057376;28;20018;-92
2022/09/13 14:53:29;;;;;;;2.92;2.08;;;;;;;;;;5059797;28;20033;-94
2022/09/13 14:56:02;;;;;;;3.20;1.98;;;;;;;;;;5047853;28;20047;-95
2022/09/13 14:58:31;;;;;;;3.13;1.50;;;;;;;;;;5059652;28;20025;-95